sensor_id;sensor_type;location;lat;lon;timestamp;P1;durP1;ratioP1;P2;durP2;ratioP2
33403;SDS011;19751;40.274;18.268;2023-07-16T00:01:45;16.48;;;7.88;;
33403;SDS011;19751;40.274;18.268;2023-07-16T00:04:10;15.43;;;9.38;;
33403;SDS011;19751;40.274;18.268;2023-07-16T00:06:36;11.68;;;8.65;;
33403;SDS011;19751;40.274;18.268;2023-07-16T00:09:02;14.38;;;9.93;;
33403;SDS011;19751;40.274;18.268;2023-07-16T00:11:28;11.98;;;8.80;;
33403;SDS011;19751;40.274;18.268;2023-07-16T00:13:53;13.10;;;8.30;;
33403;SDS011;19751;40.274;18.268;2023-07-16T00:16:19;10.80;;;8.35;;
33403;SDS011;19751;40.274;18.268;2023-07-16T00:18:44;14.20;;;8.73;;
33403;SDS011;19751;40.274;18.268;2023-07-16T00:21:10;10.02;;;8.27;;
33403;SDS011;19751;40.274;18.268;2023-07-16T00:23:36;13.70;;;8.60;;
33403;SDS011;19751;40.274;18.268;2023-07-16T00:26:02;12.30;;;8.30;;
33403;SDS011;19751;40.274;18.268;2023-07-16T00:28:27;14.57;;;8.52;;
33403;SDS011;19751;40.274;18.268;2023-07-16T00:30:54;13.07;;;8.05;;
33403;SDS011;19751;40.274;18.268;2023-07-16T00:33:19;9.95;;;7.60;;
33403;SDS011;19751;40.274;18.268;2023-07-16T00:35:48;13.05;;;8.20;;
33403;SDS011;19751;40.274;18.268;2023-07-16T00:38:16;12.18;;;8.30;;
33403;SDS011;19751;40.274;18.268;2023-07-16T00:40:42;10.73;;;8.15;;
33403;SDS011;19751;40.274;18.268;2023-07-16T00:43:08;14.25;;;9.05;;
33403;SDS011;19751;40.274;18.268;2023-07-16T00:45:33;10.63;;;7.45;;
33403;SDS011;19751;40.274;18.268;2023-07-16T00:47:59;16.95;;;8.77;;
33403;SDS011;19751;40.274;18.268;2023-07-16T00:50:24;11.32;;;8.85;;
33403;SDS011;19751;40.274;18.268;2023-07-16T00:52:50;17.65;;;9.07;;
33403;SDS011;19751;40.274;18.268;2023-07-16T00:55:15;17.27;;;8.65;;
33403;SDS011;19751;40.274;18.268;2023-07-16T00:57:41;13.75;;;8.77;;
33403;SDS011;19751;40.274;18.268;2023-07-16T01:00:07;10.73;;;7.95;;
33403;SDS011;19751;40.274;18.268;2023-07-16T01:02:34;13.38;;;8.27;;
33403;SDS011;19751;40.274;18.268;2023-07-16T01:05:00;12.07;;;8.75;;
33403;SDS011;19751;40.274;18.268;2023-07-16T01:07:27;12.25;;;8.63;;
33403;SDS011;19751;40.274;18.268;2023-07-16T01:09:55;11.80;;;8.38;;
33403;SDS011;19751;40.274;18.268;2023-07-16T01:12:22;14.40;;;9.38;;
33403;SDS011;19751;40.274;18.268;2023-07-16T01:14:48;15.45;;;9.13;;
33403;SDS011;19751;40.274;18.268;2023-07-16T01:17:15;13.20;;;8.68;;
33403;SDS011;19751;40.274;18.268;2023-07-16T01:19:41;12.98;;;8.70;;
33403;SDS011;19751;40.274;18.268;2023-07-16T01:30:08;17.40;;;9.80;;
33403;SDS011;19751;40.274;18.268;2023-07-16T01:32:36;11.27;;;8.07;;
33403;SDS011;19751;40.274;18.268;2023-07-16T01:35:03;14.77;;;8.80;;
33403;SDS011;19751;40.274;18.268;2023-07-16T01:37:30;9.57;;;7.97;;
33403;SDS011;19751;40.274;18.268;2023-07-16T01:39:57;14.68;;;8.98;;
33403;SDS011;19751;40.274;18.268;2023-07-16T01:42:22;9.30;;;7.68;;
33403;SDS011;19751;40.274;18.268;2023-07-16T01:44:48;10.65;;;7.65;;
33403;SDS011;19751;40.274;18.268;2023-07-16T01:47:15;11.20;;;8.52;;
33403;SDS011;19751;40.274;18.268;2023-07-16T01:49:44;14.45;;;8.82;;
33403;SDS011;19751;40.274;18.268;2023-07-16T01:52:10;13.02;;;8.38;;
33403;SDS011;19751;40.274;18.268;2023-07-16T01:54:35;13.60;;;8.32;;
33403;SDS011;19751;40.274;18.268;2023-07-16T01:57:02;11.80;;;8.02;;
33403;SDS011;19751;40.274;18.268;2023-07-16T01:59:27;14.88;;;8.30;;
33403;SDS011;19751;40.274;18.268;2023-07-16T02:01:53;13.13;;;9.43;;
33403;SDS011;19751;40.274;18.268;2023-07-16T02:04:18;16.35;;;8.30;;
33403;SDS011;19751;40.274;18.268;2023-07-16T02:06:44;10.70;;;7.65;;
33403;SDS011;19751;40.274;18.268;2023-07-16T02:09:10;12.15;;;8.93;;
33403;SDS011;19751;40.274;18.268;2023-07-16T02:11:35;18.23;;;8.15;;
33403;SDS011;19751;40.274;18.268;2023-07-16T02:14:01;10.55;;;8.02;;
33403;SDS011;19751;40.274;18.268;2023-07-16T02:16:27;12.18;;;8.45;;
33403;SDS011;19751;40.274;18.268;2023-07-16T02:18:52;11.30;;;7.85;;
33403;SDS011;19751;40.274;18.268;2023-07-16T02:21:18;11.40;;;8.35;;
33403;SDS011;19751;40.274;18.268;2023-07-16T02:23:43;11.88;;;8.63;;
33403;SDS011;19751;40.274;18.268;2023-07-16T02:26:09;11.55;;;7.72;;
33403;SDS011;19751;40.274;18.268;2023-07-16T02:28:34;9.20;;;8.02;;
33403;SDS011;19751;40.274;18.268;2023-07-16T02:31:00;10.27;;;7.50;;
33403;SDS011;19751;40.274;18.268;2023-07-16T02:33:27;13.40;;;8.13;;
33403;SDS011;19751;40.274;18.268;2023-07-16T02:35:52;10.98;;;7.75;;
33403;SDS011;19751;40.274;18.268;2023-07-16T02:38:18;11.05;;;8.45;;
33403;SDS011;19751;40.274;18.268;2023-07-16T02:40:44;10.45;;;7.93;;
33403;SDS011;19751;40.274;18.268;2023-07-16T02:43:09;9.65;;;7.90;;
33403;SDS011;19751;40.274;18.268;2023-07-16T02:45:35;14.45;;;8.38;;
33403;SDS011;19751;40.274;18.268;2023-07-16T02:48:00;10.73;;;8.23;;
33403;SDS011;19751;40.274;18.268;2023-07-16T02:50:26;12.68;;;8.48;;
33403;SDS011;19751;40.274;18.268;2023-07-16T02:52:51;14.80;;;9.00;;
33403;SDS011;19751;40.274;18.268;2023-07-16T02:55:17;11.98;;;8.13;;
33403;SDS011;19751;40.274;18.268;2023-07-16T02:57:42;12.18;;;8.02;;
33403;SDS011;19751;40.274;18.268;2023-07-16T03:00:08;13.35;;;8.05;;
33403;SDS011;19751;40.274;18.268;2023-07-16T03:02:34;12.73;;;7.95;;
33403;SDS011;19751;40.274;18.268;2023-07-16T03:04:59;10.57;;;6.97;;
33403;SDS011;19751;40.274;18.268;2023-07-16T03:07:25;11.43;;;7.78;;
33403;SDS011;19751;40.274;18.268;2023-07-16T03:09:50;12.95;;;8.10;;
33403;SDS011;19751;40.274;18.268;2023-07-16T03:12:16;14.00;;;8.63;;
33403;SDS011;19751;40.274;18.268;2023-07-16T03:14:41;11.07;;;7.60;;
33403;SDS011;19751;40.274;18.268;2023-07-16T03:17:08;12.23;;;7.95;;
33403;SDS011;19751;40.274;18.268;2023-07-16T03:19:33;12.30;;;7.47;;
33403;SDS011;19751;40.274;18.268;2023-07-16T03:21:59;12.48;;;8.30;;
33403;SDS011;19751;40.274;18.268;2023-07-16T03:24:24;14.23;;;7.75;;
33403;SDS011;19751;40.274;18.268;2023-07-16T03:26:50;15.80;;;8.88;;
33403;SDS011;19751;40.274;18.268;2023-07-16T03:29:15;12.07;;;8.88;;
33403;SDS011;19751;40.274;18.268;2023-07-16T03:31:40;12.10;;;8.10;;
33403;SDS011;19751;40.274;18.268;2023-07-16T03:34:06;11.98;;;7.63;;
33403;SDS011;19751;40.274;18.268;2023-07-16T03:36:31;12.85;;;8.38;;
33403;SDS011;19751;40.274;18.268;2023-07-16T03:38:57;8.43;;;7.47;;
33403;SDS011;19751;40.274;18.268;2023-07-16T03:41:22;15.65;;;8.00;;
33403;SDS011;19751;40.274;18.268;2023-07-16T03:43:48;12.50;;;7.65;;
33403;SDS011;19751;40.274;18.268;2023-07-16T03:46:13;14.45;;;7.82;;
33403;SDS011;19751;40.274;18.268;2023-07-16T03:48:42;10.55;;;7.32;;
33403;SDS011;19751;40.274;18.268;2023-07-16T03:51:07;14.05;;;7.13;;
33403;SDS011;19751;40.274;18.268;2023-07-16T03:53:33;11.48;;;7.38;;
33403;SDS011;19751;40.274;18.268;2023-07-16T03:55:58;10.82;;;7.03;;
33403;SDS011;19751;40.274;18.268;2023-07-16T03:58:23;9.13;;;6.70;;
33403;SDS011;19751;40.274;18.268;2023-07-16T04:00:49;12.50;;;7.70;;
33403;SDS011;19751;40.274;18.268;2023-07-16T04:03:15;8.02;;;6.07;;
33403;SDS011;19751;40.274;18.268;2023-07-16T04:05:40;10.32;;;6.70;;
33403;SDS011;19751;40.274;18.268;2023-07-16T04:08:06;7.63;;;6.82;;
33403;SDS011;19751;40.274;18.268;2023-07-16T04:10:33;9.40;;;6.90;;
33403;SDS011;19751;40.274;18.268;2023-07-16T04:12:59;11.55;;;7.07;;
33403;SDS011;19751;40.274;18.268;2023-07-16T04:15:24;8.25;;;6.43;;
33403;SDS011;19751;40.274;18.268;2023-07-16T04:17:50;10.40;;;6.75;;
33403;SDS011;19751;40.274;18.268;2023-07-16T04:20:15;9.95;;;7.05;;
33403;SDS011;19751;40.274;18.268;2023-07-16T04:22:41;10.40;;;7.45;;
33403;SDS011;19751;40.274;18.268;2023-07-16T04:25:06;8.65;;;5.80;;
33403;SDS011;19751;40.274;18.268;2023-07-16T04:27:32;10.05;;;6.47;;
33403;SDS011;19751;40.274;18.268;2023-07-16T04:29:58;10.52;;;6.88;;
33403;SDS011;19751;40.274;18.268;2023-07-16T04:32:23;8.02;;;5.57;;
33403;SDS011;19751;40.274;18.268;2023-07-16T04:34:49;12.73;;;7.88;;
33403;SDS011;19751;40.274;18.268;2023-07-16T04:37:14;8.13;;;6.30;;
33403;SDS011;19751;40.274;18.268;2023-07-16T04:39:40;13.23;;;6.22;;
33403;SDS011;19751;40.274;18.268;2023-07-16T04:42:05;8.27;;;6.10;;
33403;SDS011;19751;40.274;18.268;2023-07-16T04:44:31;9.68;;;5.82;;
33403;SDS011;19751;40.274;18.268;2023-07-16T04:46:56;7.60;;;5.72;;
33403;SDS011;19751;40.274;18.268;2023-07-16T04:49:22;8.25;;;5.40;;
33403;SDS011;19751;40.274;18.268;2023-07-16T04:51:47;8.90;;;5.65;;
33403;SDS011;19751;40.274;18.268;2023-07-16T04:54:13;11.05;;;6.88;;
33403;SDS011;19751;40.274;18.268;2023-07-16T04:56:38;12.23;;;6.47;;
33403;SDS011;19751;40.274;18.268;2023-07-16T04:59:04;8.63;;;6.00;;
33403;SDS011;19751;40.274;18.268;2023-07-16T05:01:29;8.50;;;5.50;;
33403;SDS011;19751;40.274;18.268;2023-07-16T05:03:55;6.55;;;5.43;;
33403;SDS011;19751;40.274;18.268;2023-07-16T05:06:20;9.88;;;6.05;;
33403;SDS011;19751;40.274;18.268;2023-07-16T05:08:45;7.82;;;6.72;;
33403;SDS011;19751;40.274;18.268;2023-07-16T05:11:12;8.10;;;5.80;;
33403;SDS011;19751;40.274;18.268;2023-07-16T05:13:37;6.05;;;5.45;;
33403;SDS011;19751;40.274;18.268;2023-07-16T05:16:03;11.48;;;5.80;;
33403;SDS011;19751;40.274;18.268;2023-07-16T05:18:29;9.00;;;4.97;;
33403;SDS011;19751;40.274;18.268;2023-07-16T05:20:54;12.18;;;5.43;;
33403;SDS011;19751;40.274;18.268;2023-07-16T05:23:20;7.55;;;5.47;;
33403;SDS011;19751;40.274;18.268;2023-07-16T05:25:49;7.15;;;5.53;;
33403;SDS011;19751;40.274;18.268;2023-07-16T05:28:15;8.52;;;5.43;;
33403;SDS011;19751;40.274;18.268;2023-07-16T05:30:41;6.95;;;5.10;;
33403;SDS011;19751;40.274;18.268;2023-07-16T05:33:07;6.65;;;5.07;;
33403;SDS011;19751;40.274;18.268;2023-07-16T05:35:32;5.55;;;4.88;;
33403;SDS011;19751;40.274;18.268;2023-07-16T05:37:57;6.43;;;4.60;;
33403;SDS011;19751;40.274;18.268;2023-07-16T05:40:23;5.00;;;4.35;;
33403;SDS011;19751;40.274;18.268;2023-07-16T05:42:48;7.85;;;4.95;;
33403;SDS011;19751;40.274;18.268;2023-07-16T05:45:14;8.32;;;6.07;;
33403;SDS011;19751;40.274;18.268;2023-07-16T05:47:39;5.18;;;4.18;;
33403;SDS011;19751;40.274;18.268;2023-07-16T05:50:05;6.75;;;4.20;;
33403;SDS011;19751;40.274;18.268;2023-07-16T05:52:31;8.15;;;4.05;;
33403;SDS011;19751;40.274;18.268;2023-07-16T05:54:57;8.05;;;3.85;;
33403;SDS011;19751;40.274;18.268;2023-07-16T05:57:22;8.20;;;4.35;;
33403;SDS011;19751;40.274;18.268;2023-07-16T05:59:48;7.32;;;4.13;;
33403;SDS011;19751;40.274;18.268;2023-07-16T06:02:13;5.80;;;4.22;;
33403;SDS011;19751;40.274;18.268;2023-07-16T06:04:39;6.80;;;5.07;;
33403;SDS011;19751;40.274;18.268;2023-07-16T06:07:04;8.52;;;4.55;;
33403;SDS011;19751;40.274;18.268;2023-07-16T06:09:30;9.80;;;4.75;;
33403;SDS011;19751;40.274;18.268;2023-07-16T06:11:56;5.88;;;3.88;;
33403;SDS011;19751;40.274;18.268;2023-07-16T06:14:21;4.45;;;3.15;;
33403;SDS011;19751;40.274;18.268;2023-07-16T06:16:47;8.20;;;4.25;;
33403;SDS011;19751;40.274;18.268;2023-07-16T06:19:12;8.48;;;4.28;;
33403;SDS011;19751;40.274;18.268;2023-07-16T06:21:38;11.63;;;5.65;;
33403;SDS011;19751;40.274;18.268;2023-07-16T06:24:03;6.10;;;3.45;;
33403;SDS011;19751;40.274;18.268;2023-07-16T06:26:29;4.97;;;3.72;;
33403;SDS011;19751;40.274;18.268;2023-07-16T06:28:54;4.70;;;3.60;;
33403;SDS011;19751;40.274;18.268;2023-07-16T06:31:19;14.63;;;4.25;;
33403;SDS011;19751;40.274;18.268;2023-07-16T06:33:45;4.00;;;2.88;;
33403;SDS011;19751;40.274;18.268;2023-07-16T06:36:12;5.03;;;2.97;;
33403;SDS011;19751;40.274;18.268;2023-07-16T06:38:38;9.25;;;3.45;;
33403;SDS011;19751;40.274;18.268;2023-07-16T06:41:03;9.15;;;3.83;;
33403;SDS011;19751;40.274;18.268;2023-07-16T06:43:29;5.85;;;3.30;;
33403;SDS011;19751;40.274;18.268;2023-07-16T06:45:54;7.60;;;3.90;;
33403;SDS011;19751;40.274;18.268;2023-07-16T06:48:20;6.80;;;4.50;;
33403;SDS011;19751;40.274;18.268;2023-07-16T06:50:45;7.15;;;3.88;;
33403;SDS011;19751;40.274;18.268;2023-07-16T06:53:11;5.00;;;3.05;;
33403;SDS011;19751;40.274;18.268;2023-07-16T06:55:36;3.25;;;2.92;;
33403;SDS011;19751;40.274;18.268;2023-07-16T06:58:02;11.15;;;3.50;;
33403;SDS011;19751;40.274;18.268;2023-07-16T07:00:28;68.10;;;9.23;;
33403;SDS011;19751;40.274;18.268;2023-07-16T07:05:36;29.88;;;5.82;;
33403;SDS011;19751;40.274;18.268;2023-07-16T07:08:06;10.55;;;3.47;;
33403;SDS011;19751;40.274;18.268;2023-07-16T07:10:31;5.97;;;3.25;;
33403;SDS011;19751;40.274;18.268;2023-07-16T07:12:58;3.30;;;2.67;;
33403;SDS011;19751;40.274;18.268;2023-07-16T07:15:23;8.07;;;2.63;;
33403;SDS011;19751;40.274;18.268;2023-07-16T07:17:49;5.72;;;2.70;;
33403;SDS011;19751;40.274;18.268;2023-07-16T07:20:17;8.95;;;3.22;;
33403;SDS011;19751;40.274;18.268;2023-07-16T07:22:42;5.07;;;3.17;;
33403;SDS011;19751;40.274;18.268;2023-07-16T07:25:08;9.57;;;3.45;;
33403;SDS011;19751;40.274;18.268;2023-07-16T07:27:33;4.07;;;2.72;;
33403;SDS011;19751;40.274;18.268;2023-07-16T07:29:59;4.13;;;3.03;;
33403;SDS011;19751;40.274;18.268;2023-07-16T07:32:24;5.55;;;3.33;;
33403;SDS011;19751;40.274;18.268;2023-07-16T07:34:50;5.72;;;2.75;;
33403;SDS011;19751;40.274;18.268;2023-07-16T07:37:15;4.32;;;3.15;;
33403;SDS011;19751;40.274;18.268;2023-07-16T07:39:41;3.88;;;2.58;;
33403;SDS011;19751;40.274;18.268;2023-07-16T07:42:06;6.30;;;3.08;;
33403;SDS011;19751;40.274;18.268;2023-07-16T07:44:32;7.53;;;3.50;;
33403;SDS011;19751;40.274;18.268;2023-07-16T07:46:58;4.13;;;3.72;;
33403;SDS011;19751;40.274;18.268;2023-07-16T07:49:23;5.13;;;3.33;;
33403;SDS011;19751;40.274;18.268;2023-07-16T07:51:49;4.30;;;2.67;;
33403;SDS011;19751;40.274;18.268;2023-07-16T07:54:15;14.50;;;2.92;;
33403;SDS011;19751;40.274;18.268;2023-07-16T07:56:41;6.75;;;3.10;;
33403;SDS011;19751;40.274;18.268;2023-07-16T07:59:06;8.43;;;3.90;;
33403;SDS011;19751;40.274;18.268;2023-07-16T08:01:32;5.28;;;2.72;;
33403;SDS011;19751;40.274;18.268;2023-07-16T08:03:58;6.20;;;3.28;;
33403;SDS011;19751;40.274;18.268;2023-07-16T08:06:23;6.05;;;2.88;;
33403;SDS011;19751;40.274;18.268;2023-07-16T08:08:49;4.45;;;2.63;;
33403;SDS011;19751;40.274;18.268;2023-07-16T08:11:15;9.32;;;4.03;;
33403;SDS011;19751;40.274;18.268;2023-07-16T08:13:40;3.70;;;3.03;;
33403;SDS011;19751;40.274;18.268;2023-07-16T08:16:05;3.55;;;2.58;;
33403;SDS011;19751;40.274;18.268;2023-07-16T08:18:31;7.63;;;2.97;;
33403;SDS011;19751;40.274;18.268;2023-07-16T08:20:56;4.40;;;3.17;;
33403;SDS011;19751;40.274;18.268;2023-07-16T08:23:22;9.10;;;3.40;;
33403;SDS011;19751;40.274;18.268;2023-07-16T08:25:47;4.88;;;2.78;;
33403;SDS011;19751;40.274;18.268;2023-07-16T08:28:15;2.92;;;2.33;;
33403;SDS011;19751;40.274;18.268;2023-07-16T08:30:41;3.58;;;2.50;;
33403;SDS011;19751;40.274;18.268;2023-07-16T08:33:06;4.43;;;2.90;;
33403;SDS011;19751;40.274;18.268;2023-07-16T08:35:32;4.90;;;3.10;;
33403;SDS011;19751;40.274;18.268;2023-07-16T08:37:57;2.72;;;2.33;;
33403;SDS011;19751;40.274;18.268;2023-07-16T08:40:23;6.38;;;3.17;;
33403;SDS011;19751;40.274;18.268;2023-07-16T08:42:49;4.97;;;2.30;;
33403;SDS011;19751;40.274;18.268;2023-07-16T08:45:15;3.58;;;2.67;;
33403;SDS011;19751;40.274;18.268;2023-07-16T08:47:41;3.05;;;2.45;;
33403;SDS011;19751;40.274;18.268;2023-07-16T08:50:07;5.53;;;2.80;;
33403;SDS011;19751;40.274;18.268;2023-07-16T08:52:33;3.95;;;2.80;;
33403;SDS011;19751;40.274;18.268;2023-07-16T08:54:58;4.70;;;3.35;;
33403;SDS011;19751;40.274;18.268;2023-07-16T08:57:24;3.90;;;2.72;;
33403;SDS011;19751;40.274;18.268;2023-07-16T08:59:51;5.22;;;2.53;;
33403;SDS011;19751;40.274;18.268;2023-07-16T09:02:17;3.75;;;2.42;;
33403;SDS011;19751;40.274;18.268;2023-07-16T09:04:44;3.92;;;2.70;;
33403;SDS011;19751;40.274;18.268;2023-07-16T09:07:11;6.18;;;2.65;;
33403;SDS011;19751;40.274;18.268;2023-07-16T09:09:37;3.13;;;2.67;;
33403;SDS011;19751;40.274;18.268;2023-07-16T09:12:02;3.55;;;2.38;;
33403;SDS011;19751;40.274;18.268;2023-07-16T09:14:28;4.10;;;2.58;;
33403;SDS011;19751;40.274;18.268;2023-07-16T09:16:54;4.90;;;2.22;;
33403;SDS011;19751;40.274;18.268;2023-07-16T09:19:20;5.90;;;1.98;;
33403;SDS011;19751;40.274;18.268;2023-07-16T09:21:47;3.60;;;2.25;;
33403;SDS011;19751;40.274;18.268;2023-07-16T09:24:16;3.85;;;2.38;;
33403;SDS011;19751;40.274;18.268;2023-07-16T09:26:52;3.17;;;2.40;;
33403;SDS011;19751;40.274;18.268;2023-07-16T09:29:20;5.82;;;2.83;;
33403;SDS011;19751;40.274;18.268;2023-07-16T09:31:55;3.42;;;2.25;;
33403;SDS011;19751;40.274;18.268;2023-07-16T09:34:27;2.90;;;2.22;;
33403;SDS011;19751;40.274;18.268;2023-07-16T09:36:54;3.63;;;2.47;;
33403;SDS011;19751;40.274;18.268;2023-07-16T09:39:21;7.55;;;3.08;;
33403;SDS011;19751;40.274;18.268;2023-07-16T09:41:48;5.38;;;2.55;;
33403;SDS011;19751;40.274;18.268;2023-07-16T09:44:15;4.70;;;2.42;;
33403;SDS011;19751;40.274;18.268;2023-07-16T09:46:41;2.60;;;2.00;;
33403;SDS011;19751;40.274;18.268;2023-07-16T09:49:08;5.78;;;2.80;;
33403;SDS011;19751;40.274;18.268;2023-07-16T09:51:37;2.90;;;2.35;;
33403;SDS011;19751;40.274;18.268;2023-07-16T09:54:03;3.67;;;2.22;;
33403;SDS011;19751;40.274;18.268;2023-07-16T09:56:32;4.75;;;2.80;;
33403;SDS011;19751;40.274;18.268;2023-07-16T09:59:02;3.65;;;2.30;;
33403;SDS011;19751;40.274;18.268;2023-07-16T10:01:31;3.78;;;2.72;;
33403;SDS011;19751;40.274;18.268;2023-07-16T10:03:56;3.28;;;2.38;;
33403;SDS011;19751;40.274;18.268;2023-07-16T10:06:22;2.35;;;1.70;;
33403;SDS011;19751;40.274;18.268;2023-07-16T10:08:50;7.25;;;2.55;;
33403;SDS011;19751;40.274;18.268;2023-07-16T10:11:19;3.30;;;2.05;;
33403;SDS011;19751;40.274;18.268;2023-07-16T10:13:50;4.70;;;2.22;;
33403;SDS011;19751;40.274;18.268;2023-07-16T10:16:20;4.13;;;2.03;;
33403;SDS011;19751;40.274;18.268;2023-07-16T10:18:52;3.80;;;3.13;;
33403;SDS011;19751;40.274;18.268;2023-07-16T10:21:27;3.08;;;2.05;;
33403;SDS011;19751;40.274;18.268;2023-07-16T10:23:56;5.72;;;2.53;;
33403;SDS011;19751;40.274;18.268;2023-07-16T10:26:28;1.95;;;1.73;;
33403;SDS011;19751;40.274;18.268;2023-07-16T10:28:54;3.95;;;1.92;;
33403;SDS011;19751;40.274;18.268;2023-07-16T10:31:21;3.13;;;2.50;;
33403;SDS011;19751;40.274;18.268;2023-07-16T10:34:03;2.20;;;1.85;;
33403;SDS011;19751;40.274;18.268;2023-07-16T10:36:30;4.07;;;2.17;;
33403;SDS011;19751;40.274;18.268;2023-07-16T10:39:02;5.78;;;2.20;;
33403;SDS011;19751;40.274;18.268;2023-07-16T10:41:30;5.97;;;2.55;;
33403;SDS011;19751;40.274;18.268;2023-07-16T10:43:56;4.15;;;2.35;;
33403;SDS011;19751;40.274;18.268;2023-07-16T10:46:23;3.25;;;2.13;;
33403;SDS011;19751;40.274;18.268;2023-07-16T10:48:49;3.30;;;2.25;;
33403;SDS011;19751;40.274;18.268;2023-07-16T10:51:14;4.97;;;2.08;;
33403;SDS011;19751;40.274;18.268;2023-07-16T10:53:41;3.50;;;1.98;;
33403;SDS011;19751;40.274;18.268;2023-07-16T10:56:07;2.63;;;2.05;;
33403;SDS011;19751;40.274;18.268;2023-07-16T10:58:33;4.78;;;2.28;;
33403;SDS011;19751;40.274;18.268;2023-07-16T11:01:01;2.85;;;1.73;;
33403;SDS011;19751;40.274;18.268;2023-07-16T11:03:27;2.67;;;1.70;;
33403;SDS011;19751;40.274;18.268;2023-07-16T11:05:53;4.95;;;2.47;;
33403;SDS011;19751;40.274;18.268;2023-07-16T11:08:22;8.75;;;2.70;;
33403;SDS011;19751;40.274;18.268;2023-07-16T11:10:58;3.97;;;2.05;;
33403;SDS011;19751;40.274;18.268;2023-07-16T11:13:43;2.90;;;1.73;;
33403;SDS011;19751;40.274;18.268;2023-07-16T11:16:09;4.13;;;2.25;;
33403;SDS011;19751;40.274;18.268;2023-07-16T11:18:35;3.85;;;2.38;;
33403;SDS011;19751;40.274;18.268;2023-07-16T11:21:01;3.17;;;2.13;;
33403;SDS011;19751;40.274;18.268;2023-07-16T11:23:28;3.00;;;1.67;;
33403;SDS011;19751;40.274;18.268;2023-07-16T11:25:54;3.22;;;2.17;;
33403;SDS011;19751;40.274;18.268;2023-07-16T11:28:19;4.18;;;2.30;;
33403;SDS011;19751;40.274;18.268;2023-07-16T11:30:45;2.30;;;1.80;;
33403;SDS011;19751;40.274;18.268;2023-07-16T11:33:11;3.38;;;1.90;;
33403;SDS011;19751;40.274;18.268;2023-07-16T11:35:37;3.63;;;1.95;;
33403;SDS011;19751;40.274;18.268;2023-07-16T11:38:06;4.72;;;2.30;;
33403;SDS011;19751;40.274;18.268;2023-07-16T11:40:36;4.95;;;2.22;;
33403;SDS011;19751;40.274;18.268;2023-07-16T11:43:08;2.92;;;2.00;;
33403;SDS011;19751;40.274;18.268;2023-07-16T11:45:35;2.42;;;2.22;;
33403;SDS011;19751;40.274;18.268;2023-07-16T11:48:01;4.38;;;2.35;;
33403;SDS011;19751;40.274;18.268;2023-07-16T11:50:28;2.50;;;1.92;;
33403;SDS011;19751;40.274;18.268;2023-07-16T11:52:55;3.72;;;2.35;;
33403;SDS011;19751;40.274;18.268;2023-07-16T11:55:21;3.15;;;2.00;;
33403;SDS011;19751;40.274;18.268;2023-07-16T11:57:47;5.13;;;1.90;;
33403;SDS011;19751;40.274;18.268;2023-07-16T12:00:13;5.43;;;1.98;;
33403;SDS011;19751;40.274;18.268;2023-07-16T12:02:38;7.85;;;2.15;;
33403;SDS011;19751;40.274;18.268;2023-07-16T12:05:04;3.40;;;1.90;;
33403;SDS011;19751;40.274;18.268;2023-07-16T12:07:31;2.05;;;1.85;;
33403;SDS011;19751;40.274;18.268;2023-07-16T12:09:57;2.42;;;2.22;;
33403;SDS011;19751;40.274;18.268;2023-07-16T12:12:23;3.00;;;2.08;;
33403;SDS011;19751;40.274;18.268;2023-07-16T12:14:49;3.10;;;1.92;;
33403;SDS011;19751;40.274;18.268;2023-07-16T12:17:14;5.25;;;2.63;;
33403;SDS011;19751;40.274;18.268;2023-07-16T12:19:39;5.75;;;1.80;;
33403;SDS011;19751;40.274;18.268;2023-07-16T12:22:05;4.80;;;2.35;;
33403;SDS011;19751;40.274;18.268;2023-07-16T12:24:31;3.22;;;2.00;;
33403;SDS011;19751;40.274;18.268;2023-07-16T12:26:56;2.30;;;2.00;;
33403;SDS011;19751;40.274;18.268;2023-07-16T12:29:22;2.90;;;2.20;;
33403;SDS011;19751;40.274;18.268;2023-07-16T12:31:47;5.22;;;2.00;;
33403;SDS011;19751;40.274;18.268;2023-07-16T12:34:13;3.00;;;2.53;;
33403;SDS011;19751;40.274;18.268;2023-07-16T12:36:38;7.30;;;3.22;;
33403;SDS011;19751;40.274;18.268;2023-07-16T12:39:03;2.15;;;1.73;;
33403;SDS011;19751;40.274;18.268;2023-07-16T12:41:29;3.35;;;2.50;;
33403;SDS011;19751;40.274;18.268;2023-07-16T12:43:54;2.10;;;1.70;;
33403;SDS011;19751;40.274;18.268;2023-07-16T12:46:20;2.65;;;2.05;;
33403;SDS011;19751;40.274;18.268;2023-07-16T12:48:46;3.13;;;1.70;;
33403;SDS011;19751;40.274;18.268;2023-07-16T12:51:11;2.95;;;2.03;;
33403;SDS011;19751;40.274;18.268;2023-07-16T12:53:37;3.67;;;2.38;;
33403;SDS011;19751;40.274;18.268;2023-07-16T12:56:03;4.70;;;1.85;;
33403;SDS011;19751;40.274;18.268;2023-07-16T12:58:29;3.03;;;1.98;;
33403;SDS011;19751;40.274;18.268;2023-07-16T13:00:54;2.33;;;1.80;;
33403;SDS011;19751;40.274;18.268;2023-07-16T13:03:20;2.45;;;1.95;;
33403;SDS011;19751;40.274;18.268;2023-07-16T13:05:46;2.70;;;2.13;;
33403;SDS011;19751;40.274;18.268;2023-07-16T13:08:12;3.38;;;2.00;;
33403;SDS011;19751;40.274;18.268;2023-07-16T13:10:39;3.42;;;1.80;;
33403;SDS011;19751;40.274;18.268;2023-07-16T13:13:05;3.60;;;2.45;;
33403;SDS011;19751;40.274;18.268;2023-07-16T13:15:31;3.47;;;2.15;;
33403;SDS011;19751;40.274;18.268;2023-07-16T13:17:57;4.65;;;1.85;;
33403;SDS011;19751;40.274;18.268;2023-07-16T13:20:23;2.40;;;1.40;;
33403;SDS011;19751;40.274;18.268;2023-07-16T13:22:48;3.50;;;2.10;;
33403;SDS011;19751;40.274;18.268;2023-07-16T13:25:14;6.60;;;2.08;;
33403;SDS011;19751;40.274;18.268;2023-07-16T13:27:40;5.15;;;2.38;;
33403;SDS011;19751;40.274;18.268;2023-07-16T13:30:06;3.75;;;1.73;;
33403;SDS011;19751;40.274;18.268;2023-07-16T13:32:32;4.10;;;1.90;;
33403;SDS011;19751;40.274;18.268;2023-07-16T13:34:57;4.93;;;2.30;;
33403;SDS011;19751;40.274;18.268;2023-07-16T13:37:23;4.78;;;2.00;;
33403;SDS011;19751;40.274;18.268;2023-07-16T13:39:48;2.67;;;1.85;;
33403;SDS011;19751;40.274;18.268;2023-07-16T13:42:14;4.22;;;1.58;;
33403;SDS011;19751;40.274;18.268;2023-07-16T13:44:39;4.85;;;1.98;;
33403;SDS011;19751;40.274;18.268;2023-07-16T13:47:05;2.33;;;1.52;;
33403;SDS011;19751;40.274;18.268;2023-07-16T13:49:30;4.15;;;2.13;;
33403;SDS011;19751;40.274;18.268;2023-07-16T13:51:56;3.80;;;1.90;;
33403;SDS011;19751;40.274;18.268;2023-07-16T13:54:21;3.65;;;2.25;;
33403;SDS011;19751;40.274;18.268;2023-07-16T13:56:48;1.95;;;1.73;;
33403;SDS011;19751;40.274;18.268;2023-07-16T13:59:14;2.35;;;1.90;;
33403;SDS011;19751;40.274;18.268;2023-07-16T14:01:39;3.47;;;1.98;;
33403;SDS011;19751;40.274;18.268;2023-07-16T14:04:05;3.47;;;2.40;;
33403;SDS011;19751;40.274;18.268;2023-07-16T14:06:31;2.90;;;1.92;;
33403;SDS011;19751;40.274;18.268;2023-07-16T14:08:57;3.75;;;2.10;;
33403;SDS011;19751;40.274;18.268;2023-07-16T14:11:23;3.65;;;1.95;;
33403;SDS011;19751;40.274;18.268;2023-07-16T14:13:49;4.90;;;2.58;;
33403;SDS011;19751;40.274;18.268;2023-07-16T14:16:16;3.88;;;1.85;;
33403;SDS011;19751;40.274;18.268;2023-07-16T14:18:42;4.63;;;2.15;;
33403;SDS011;19751;40.274;18.268;2023-07-16T14:21:08;2.28;;;1.95;;
33403;SDS011;19751;40.274;18.268;2023-07-16T14:23:34;2.70;;;2.30;;
33403;SDS011;19751;40.274;18.268;2023-07-16T14:25:59;4.22;;;2.28;;
33403;SDS011;19751;40.274;18.268;2023-07-16T14:28:25;6.47;;;2.30;;
33403;SDS011;19751;40.274;18.268;2023-07-16T14:30:50;3.83;;;2.40;;
33403;SDS011;19751;40.274;18.268;2023-07-16T14:33:16;3.15;;;1.70;;
33403;SDS011;19751;40.274;18.268;2023-07-16T14:35:41;4.55;;;2.28;;